Time;durP1;ratioP1;P1;durP2;ratioP2;P2;SDS_P1;SDS_P2;PMS_P1;PMS_P2;Temp;Humidity;BMP_temperature;BMP_pressure;BME280_temperature;BME280_humidity;BME280_pressure;Samples;Min_cycle;Max_cycle;Signal;HPM_P1;HPM_P2
2022/07/08 00:01:54;;;;;;;11.00;10.03;;;;;;;17.73;78.04;92834.44;5002161;28;20223;-75
2022/07/08 00:04:20;;;;;;;9.33;8.80;;;;;;;17.71;78.47;92832.13;5001510;28;20192;-75
2022/07/08 00:06:46;;;;;;;10.63;9.90;;;;;;;17.83;78.68;92834.09;5000833;28;20232;-74
2022/07/08 00:09:11;;;;;;;11.40;10.60;;;;;;;17.91;78.98;92835.91;5004497;28;20276;-76
2022/07/08 00:11:37;;;;;;;10.20;9.23;;;;;;;17.67;79.88;92809.28;5003078;28;20224;-75
2022/07/08 00:14:03;;;;;;;10.93;10.13;;;;;;;17.91;79.26;92820.06;5001441;28;20303;-74
2022/07/08 00:16:29;;;;;;;9.20;8.50;;;;;;;17.88;80.38;92826.00;4999825;28;20247;-74
2022/07/08 00:18:54;;;;;;;10.07;9.23;;;;;;;17.96;79.27;92814.63;5001682;28;20196;-75
2022/07/08 00:21:20;;;;;;;10.07;9.47;;;;;;;17.98;80.07;92826.41;4999142;28;20262;-75
2022/07/08 00:23:46;;;;;;;9.47;8.87;;;;;;;17.99;80.21;92819.25;5001526;28;20199;-75
2022/07/08 00:26:12;;;;;;;10.80;10.10;;;;;;;17.80;80.44;92809.09;5002490;28;20223;-75
2022/07/08 00:28:37;;;;;;;10.70;10.10;;;;;;;17.87;80.50;92809.38;5002180;28;20232;-74
2022/07/08 00:31:03;;;;;;;10.57;9.93;;;;;;;18.00;80.60;92834.00;4997572;28;20244;-75
2022/07/08 00:33:28;;;;;;;10.87;9.97;;;;;;;17.94;80.38;92824.72;5001540;28;20191;-74
2022/07/08 00:35:54;;;;;;;11.37;10.67;;;;;;;17.65;80.72;92785.09;5000267;28;21310;-75
2022/07/08 00:38:20;;;;;;;10.33;9.63;;;;;;;17.93;80.48;92834.50;5003880;28;20202;-76
2022/07/08 00:40:45;;;;;;;10.43;9.73;;;;;;;17.96;79.27;92812.72;5003555;28;20246;-75
2022/07/08 00:43:47;;;;;;;9.63;8.93;;;;;;;17.62;79.19;92772.50;5004298;28;20194;-75
2022/07/08 00:46:15;;;;;;;9.93;9.33;;;;;;;17.94;79.61;92827.38;4945412;29;20224;-73
2022/07/08 00:48:41;;;;;;;9.63;9.07;;;;;;;17.84;80.08;92827.72;4991468;28;20236;-76
2022/07/08 00:51:09;;;;;;;9.43;8.83;;;;;;;17.72;79.70;92822.31;5002712;28;22260;-75
2022/07/08 00:53:37;;;;;;;10.03;9.43;;;;;;;17.80;79.57;92824.94;5006212;28;20195;-74
2022/07/08 00:56:03;;;;;;;9.70;8.90;;;;;;;17.54;79.92;92803.16;5004841;28;20226;-76
2022/07/08 00:58:31;;;;;;;10.03;9.43;;;;;;;17.78;79.84;92826.34;5005135;28;20179;-75
2022/07/08 01:00:56;;;;;;;10.33;9.63;;;;;;;17.92;78.86;92824.25;5003843;28;20227;-75
2022/07/08 01:03:21;;;;;;;10.77;10.07;;;;;;;17.87;78.93;92816.53;5001144;28;20909;-75
2022/07/08 01:05:47;;;;;;;9.43;8.83;;;;;;;17.93;78.54;92817.91;5003777;28;20242;-76
2022/07/08 01:08:13;;;;;;;10.10;9.50;;;;;;;18.02;78.44;92837.91;5006743;28;20238;-76
2022/07/08 01:10:39;;;;;;;10.10;9.47;;;;;;;17.98;77.22;92815.84;5002106;28;20749;-75
2022/07/08 01:13:05;;;;;;;11.37;10.33;;;;;;;18.14;76.87;92824.00;5004495;28;20181;-76
2022/07/08 01:15:31;;;;;;;9.17;8.53;;;;;;;18.06;76.90;92822.16;5003530;28;20193;-75
2022/07/08 01:17:56;;;;;;;10.93;9.93;;;;;;;17.85;77.82;92810.78;5003313;28;20224;-75
2022/07/08 01:20:22;;;;;;;10.97;10.13;;;;;;;17.99;77.11;92814.75;5004018;28;20197;-76
2022/07/08 01:22:47;;;;;;;10.93;10.03;;;;;;;17.85;77.46;92813.41;5004768;28;20204;-75
2022/07/08 01:25:14;;;;;;;10.73;9.97;;;;;;;17.74;77.94;92805.09;5002090;28;20892;-76
2022/07/08 01:27:39;;;;;;;10.63;9.90;;;;;;;17.82;78.81;92812.16;5004849;28;20224;-75
2022/07/08 01:30:06;;;;;;;9.57;8.87;;;;;;;17.68;78.71;92790.50;5003375;28;21171;-75
2022/07/08 01:32:36;;;;;;;9.87;9.20;;;;;;;17.92;78.46;92818.97;5005450;28;20247;-76
2022/07/08 01:35:02;;;;;;;10.37;9.77;;;;;;;17.93;78.25;92820.53;5003545;28;20286;-76
2022/07/08 01:37:28;;;;;;;9.50;8.90;;;;;;;17.82;78.46;92821.97;5002475;28;20217;-76
2022/07/08 01:39:53;;;;;;;10.70;9.90;;;;;;;17.64;78.61;92802.78;5005914;28;20185;-76
2022/07/08 01:42:19;;;;;;;9.90;9.40;;;;;;;17.63;78.47;92800.47;5003907;28;20231;-76
2022/07/08 01:44:44;;;;;;;10.03;9.53;;;;;;;17.73;78.42;92818.59;5005052;28;20180;-76
2022/07/08 01:47:09;;;;;;;9.77;9.07;;;;;;;17.56;79.38;92814.94;5003432;28;20226;-74
2022/07/08 01:49:35;;;;;;;9.73;9.20;;;;;;;17.47;79.78;92811.53;5002771;28;20219;-75
2022/07/08 01:52:00;;;;;;;10.43;9.83;;;;;;;17.32;80.06;92798.81;5004287;28;20220;-76
2022/07/08 01:54:26;;;;;;;9.80;9.20;;;;;;;17.44;79.83;92806.91;5005324;28;20255;-76
2022/07/08 01:57:13;;;;;;;10.10;9.37;;;;;;;17.31;80.35;92807.03;4982511;28;20239;-76
2022/07/08 01:59:37;;;;;;;10.37;9.70;;;;;;;17.24;81.30;92809.41;4985395;28;20188;-76
2022/07/08 02:02:03;;;;;;;8.37;7.97;;;;;;;17.23;81.00;92816.53;4976588;28;20220;-75
2022/07/08 02:04:29;;;;;;;9.37;8.87;;;;;;;17.07;80.18;92797.03;4982389;28;20188;-75
2022/07/08 02:06:54;;;;;;;9.40;8.90;;;;;;;17.09;79.49;92801.97;4996681;28;20219;-76
2022/07/08 02:09:20;;;;;;;10.00;9.23;;;;;;;17.25;79.33;92824.91;5002853;28;20243;-75
2022/07/08 02:14:30;;;;;;;9.47;8.83;;;;;;;16.88;80.56;92772.84;5001751;28;20201;-75
2022/07/08 02:16:55;;;;;;;10.10;9.30;;;;;;;17.18;80.66;92813.28;5001794;28;20235;-76
2022/07/08 02:19:21;;;;;;;9.57;8.87;;;;;;;17.05;80.54;92820.28;5003572;28;20200;-76
2022/07/08 02:21:46;;;;;;;10.13;9.23;;;;;;;16.91;81.19;92819.69;4999303;28;20228;-76
2022/07/08 02:24:13;;;;;;;8.93;8.43;;;;;;;16.68;81.65;92794.56;5004694;28;20184;-76
2022/07/08 02:26:39;;;;;;;10.00;9.27;;;;;;;16.89;81.07;92815.78;5002334;28;20636;-75
2022/07/08 02:29:05;;;;;;;10.47;8.53;;;;;;;16.72;82.04;92821.06;5002067;28;20290;-75
2022/07/08 02:31:30;;;;;;;9.13;8.67;;;;;;;16.47;82.49;92793.63;5000407;28;20248;-76
2022/07/08 02:33:56;;;;;;;9.07;8.53;;;;;;;16.57;82.19;92806.50;5002210;28;20200;-75
2022/07/08 02:36:21;;;;;;;9.43;8.93;;;;;;;16.38;83.34;92815.75;5003546;28;20283;-75
2022/07/08 02:38:47;;;;;;;10.47;9.70;;;;;;;16.58;82.60;92839.69;5000280;28;20196;-75
2022/07/08 02:41:12;;;;;;;9.97;9.30;;;;;;;16.37;82.44;92814.22;5001721;28;20227;-75
2022/07/08 02:43:38;;;;;;;9.57;9.07;;;;;;;16.50;82.82;92832.53;5004025;28;20222;-75
2022/07/08 02:46:03;;;;;;;9.70;9.10;;;;;;;16.56;82.79;92838.44;5000296;28;20239;-76
2022/07/08 02:48:28;;;;;;;9.13;8.43;;;;;;;16.44;83.15;92836.41;5000668;28;20703;-76
2022/07/08 02:50:54;;;;;;;9.47;8.97;;;;;;;16.46;83.39;92844.78;5002486;28;20235;-76
2022/07/08 02:53:19;;;;;;;10.27;9.73;;;;;;;16.63;82.71;92839.53;5003785;28;20246;-76
2022/07/08 02:55:45;;;;;;;10.23;9.47;;;;;;;16.60;82.96;92839.38;5003471;28;20775;-75
2022/07/08 02:58:11;;;;;;;9.70;9.03;;;;;;;16.44;84.68;92841.69;5002806;28;20218;-75
2022/07/08 03:00:36;;;;;;;9.03;8.43;;;;;;;16.57;84.02;92838.13;5002589;28;20279;-75
2022/07/08 03:03:02;;;;;;;10.90;10.17;;;;;;;16.40;84.70;92829.41;5001035;28;20200;-75
2022/07/08 03:05:27;;;;;;;10.67;9.97;;;;;;;16.36;85.55;92834.50;4992084;28;20187;-75
2022/07/08 03:07:53;;;;;;;10.57;9.93;;;;;;;16.46;84.95;92820.28;5003796;28;20246;-75
2022/07/08 03:10:18;;;;;;;10.60;9.77;;;;;;;16.63;84.66;92833.47;5002555;28;20203;-75
2022/07/08 03:12:43;;;;;;;10.13;9.53;;;;;;;17.14;82.64;92833.44;4982556;28;20228;-75
2022/07/08 03:15:09;;;;;;;10.30;9.70;;;;;;;17.51;80.31;92830.94;5003123;28;20176;-75
2022/07/08 03:17:34;;;;;;;10.20;9.60;;;;;;;17.27;80.83;92816.69;4999905;28;20251;-76
2022/07/08 03:19:59;;;;;;;9.83;9.13;;;;;;;17.44;80.32;92806.13;4999505;28;20184;-75
2022/07/08 03:22:25;;;;;;;11.10;10.23;;;;;;;17.53;80.26;92831.41;5003260;28;20222;-76
2022/07/08 03:24:50;;;;;;;11.47;10.47;;;;;;;17.46;81.39;92838.25;5000240;28;20219;-75
2022/07/08 03:27:16;;;;;;;10.17;9.57;;;;;;;17.48;81.26;92834.19;5000491;28;20282;-75
2022/07/08 03:29:41;;;;;;;10.33;9.67;;;;;;;17.80;80.44;92832.09;5002235;28;20222;-75
2022/07/08 03:32:06;;;;;;;9.77;9.17;;;;;;;18.10;78.96;92831.78;5002462;28;20220;-76
2022/07/08 03:34:32;;;;;;;10.23;9.47;;;;;;;18.43;77.14;92831.94;5001962;28;20197;-76
2022/07/08 03:36:57;;;;;;;9.30;8.70;;;;;;;19.51;72.30;92837.78;5000178;28;20220;-76
2022/07/08 03:39:23;;;;;;;10.23;9.60;;;;;;;19.74;71.07;92846.88;4999000;28;20204;-76
2022/07/08 03:41:49;;;;;;;9.80;8.93;;;;;;;19.45;72.66;92825.06;5002836;28;20225;-75
2022/07/08 03:44:14;;;;;;;9.80;9.20;;;;;;;20.20;69.89;92851.06;5004477;28;20185;-75
2022/07/08 03:46:40;;;;;;;8.97;8.47;;;;;;;20.27;69.96;92852.06;4999331;28;20256;-76
2022/07/08 03:49:05;;;;;;;10.27;9.57;;;;;;;21.24;65.58;92812.06;5000452;28;20217;-76
2022/07/08 03:51:30;;;;;;;10.63;9.83;;;;;;;22.75;60.66;92869.84;5003682;28;20251;-76
2022/07/08 03:53:56;;;;;;;9.18;8.68;;;;;;;22.07;62.35;92864.00;5002164;28;20183;-75
2022/07/08 03:56:21;;;;;;;8.55;8.05;;;;;;;21.17;65.24;92852.47;5003466;28;20258;-75
2022/07/08 03:58:47;;;;;;;9.95;9.25;;;;;;;20.88;66.83;92865.25;5004609;28;20202;-75
2022/07/08 04:01:12;;;;;;;10.52;9.82;;;;;;;21.15;65.83;92869.88;5003955;28;20226;-75
2022/07/08 04:03:37;;;;;;;10.37;9.63;;;;;;;21.09;66.68;92873.88;4998384;28;20202;-76
2022/07/08 04:06:03;;;;;;;11.38;10.13;;;;;;;21.02;65.79;92868.34;5001922;28;20240;-74
2022/07/08 04:08:28;;;;;;;10.90;10.02;;;;;;;19.72;70.33;92846.44;5004273;28;20268;-74
2022/07/08 04:10:54;;;;;;;10.73;9.93;;;;;;;19.53;71.94;92827.66;5000707;28;20236;-74
2022/07/08 04:13:19;;;;;;;10.60;10.00;;;;;;;20.04;70.34;92852.78;5000425;28;21228;-74
2022/07/08 04:15:45;;;;;;;10.10;9.50;;;;;;;20.20;68.54;92822.66;5006138;28;20759;-74
2022/07/08 04:18:10;;;;;;;9.82;9.13;;;;;;;20.56;67.51;92838.53;5004526;28;20207;-74
2022/07/08 04:20:36;;;;;;;9.43;8.88;;;;;;;20.66;68.02;92832.78;5001758;28;20193;-73
2022/07/08 04:23:01;;;;;;;9.68;9.15;;;;;;;20.64;69.29;92845.63;5005375;28;20195;-77
2022/07/08 04:25:26;;;;;;;14.18;10.07;;;;;;;20.16;70.52;92845.66;5005067;28;20201;-76
2022/07/08 04:27:52;;;;;;;11.13;10.13;;;;;;;20.39;69.02;92828.16;4987769;28;20195;-75
2022/07/08 04:30:17;;;;;;;10.57;9.80;;;;;;;20.49;68.79;92833.03;5004028;28;20191;-75
2022/07/08 04:32:43;;;;;;;10.90;10.15;;;;;;;19.99;71.29;92859.06;5010350;28;20366;-76
2022/07/08 04:35:08;;;;;;;12.23;10.60;;;;;;;20.16;71.02;92850.16;5006734;28;20431;-75
2022/07/08 04:37:34;;;;;;;12.00;11.00;;;;;;;20.69;68.86;92866.63;5007500;28;20723;-73
2022/07/08 04:39:59;;;;;;;10.53;9.73;;;;;;;21.56;66.04;92866.81;5004301;28;20207;-71
2022/07/08 04:42:25;;;;;;;11.55;10.52;;;;;;;21.29;66.64;92870.28;5007624;28;20230;-70
2022/07/08 04:44:50;;;;;;;11.68;10.77;;;;;;;21.06;67.50;92866.59;5004448;28;20204;-72
2022/07/08 04:47:16;;;;;;;12.30;11.25;;;;;;;20.77;68.56;92869.47;5005439;28;20258;-71
2022/07/08 04:49:41;;;;;;;12.02;11.10;;;;;;;20.66;67.54;92854.03;5006016;28;20242;-72
2022/07/08 04:52:07;;;;;;;11.90;11.05;;;;;;;20.56;68.80;92865.06;5001586;28;20238;-71
2022/07/08 04:54:33;;;;;;;12.30;11.40;;;;;;;20.33;70.33;92863.97;5003389;28;20186;-69
2022/07/08 04:56:59;;;;;;;12.38;11.32;;;;;;;20.38;70.31;92865.63;5001339;28;20226;-70
2022/07/08 04:59:24;;;;;;;12.02;10.90;;;;;;;20.47;69.82;92866.28;4999541;28;20219;-71
2022/07/08 05:01:50;;;;;;;12.23;11.32;;;;;;;20.54;68.95;92846.09;5001979;28;20286;-71
2022/07/08 05:04:15;;;;;;;13.10;12.00;;;;;;;20.73;68.93;92871.25;5004575;28;20260;-71
2022/07/08 05:06:41;;;;;;;13.95;12.65;;;;;;;20.77;68.68;92869.47;5002691;28;20265;-69
2022/07/08 05:09:06;;;;;;;13.00;11.90;;;;;;;20.18;72.36;92864.66;5001996;28;20241;-72
2022/07/08 05:11:31;;;;;;;12.00;11.00;;;;;;;20.81;69.46;92854.44;4994051;28;20306;-72
2022/07/08 05:13:57;;;;;;;12.85;11.65;;;;;;;21.87;65.83;92866.91;5000681;28;20186;-72
2022/07/08 05:16:22;;;;;;;11.00;10.10;;;;;;;22.91;61.72;92873.22;5003449;28;20283;-70
2022/07/08 05:18:48;;;;;;;12.02;11.13;;;;;;;23.03;60.89;92872.34;5002681;28;20194;-71
2022/07/08 05:21:13;;;;;;;12.43;11.50;;;;;;;22.35;63.60;92863.91;5004845;28;20224;-73
2022/07/08 05:23:38;;;;;;;13.35;12.25;;;;;;;22.11;64.72;92853.47;5008555;28;20178;-75
2022/07/08 05:26:04;;;;;;;13.13;12.13;;;;;;;21.51;67.33;92861.78;4981608;28;20248;-75
2022/07/08 05:28:29;;;;;;;12.10;11.10;;;;;;;21.77;65.43;92860.22;4990537;28;20232;-74
2022/07/08 05:30:55;;;;;;;12.60;11.35;;;;;;;21.43;67.24;92844.09;4994903;28;20236;-75
2022/07/08 05:33:20;;;;;;;12.57;11.57;;;;;;;22.53;64.50;92862.50;5007263;28;20214;-74
2022/07/08 05:35:45;;;;;;;11.85;10.93;;;;;;;22.39;65.28;92870.13;5003306;28;20234;-71
2022/07/08 05:38:11;;;;;;;12.55;11.35;;;;;;;23.65;61.34;92872.13;5006689;28;20205;-72
2022/07/08 05:40:37;;;;;;;13.38;12.05;;;;;;;27.60;48.77;92873.81;5005078;28;20197;-69
2022/07/08 05:43:03;;;;;;;16.08;14.13;;;;;;;30.38;41.05;92877.13;5000807;28;20205;-71
2022/07/08 05:45:28;;;;;;;12.73;11.48;;;;;;;33.57;34.57;92891.41;5000913;28;20195;-70
2022/07/08 05:47:54;;;;;;;12.52;11.32;;;;;;;34.07;33.45;92898.19;5005095;28;20216;-70
2022/07/08 05:50:19;;;;;;;12.48;11.23;;;;;;;35.01;31.19;92899.25;5009208;28;20575;-70
2022/07/08 05:52:45;;;;;;;17.02;12.48;;;;;;;35.18;30.64;92887.19;5004957;28;20231;-70
2022/07/08 05:55:10;;;;;;;13.00;11.77;;;;;;;34.14;32.68;92894.56;5006764;28;20195;-70
2022/07/08 05:57:35;;;;;;;11.63;10.82;;;;;;;34.19;32.62;92894.06;5006205;28;20227;-70
2022/07/08 06:00:01;;;;;;;11.15;10.35;;;;;;;35.51;30.44;92888.69;5004937;28;20195;-70
2022/07/08 06:02:26;;;;;;;10.20;9.30;;;;;;;37.60;26.58;92891.00;5004908;28;20250;-70
2022/07/08 06:04:52;;;;;;;10.68;9.88;;;;;;;38.56;25.85;92912.97;5007059;28;20721;-71
2022/07/08 06:07:17;;;;;;;10.88;9.93;;;;;;;38.43;25.87;92911.06;5006829;28;20232;-72
2022/07/08 06:09:42;;;;;;;9.50;8.88;;;;;;;34.33;31.03;92898.44;5005781;28;20211;-73
2022/07/08 06:12:08;;;;;;;10.93;10.05;;;;;;;34.35;31.85;92891.41;5003540;28;20229;-72
2022/07/08 06:14:34;;;;;;;11.07;9.35;;;;;;;33.47;32.96;92893.13;5005234;28;20232;-72
2022/07/08 06:16:59;;;;;;;11.27;10.20;;;;;;;34.31;32.54;92892.69;5000771;28;20784;-72
2022/07/08 06:19:25;;;;;;;9.93;9.23;;;;;;;32.90;33.81;92892.53;5003130;28;20199;-72
2022/07/08 06:21:51;;;;;;;9.93;9.23;;;;;;;32.88;34.47;92888.72;5001008;28;20229;-71
2022/07/08 06:24:16;;;;;;;9.77;9.07;;;;;;;35.09;30.77;92885.09;5001749;28;20191;-72
2022/07/08 06:26:46;;;;;;;9.75;9.05;;;;;;;36.36;28.82;92895.34;5003770;28;20223;-71
2022/07/08 06:29:11;;;;;;;10.70;9.85;;;;;;;36.44;28.23;92883.06;5003370;28;20298;-72
2022/07/08 06:31:38;;;;;;;9.93;9.13;;;;;;;36.89;27.86;92894.53;4999712;28;20224;-72
2022/07/08 06:34:06;;;;;;;9.75;8.82;;;;;;;36.70;27.63;92896.22;5001289;28;20188;-74
2022/07/08 06:36:32;;;;;;;12.00;10.88;;;;;;;35.80;29.05;92883.28;5000113;28;20231;-69
2022/07/08 06:38:58;;;;;;;10.65;9.68;;;;;;;36.57;28.07;92875.66;5001400;28;20186;-71
2022/07/08 06:41:24;;;;;;;10.00;9.23;;;;;;;36.71;27.05;92886.09;5002012;28;20255;-72
2022/07/08 06:43:49;;;;;;;10.52;9.15;;;;;;;36.16;27.68;92864.81;5001376;28;20184;-71
2022/07/08 06:46:15;;;;;;;10.38;9.48;;;;;;;34.02;31.22;92870.81;5003951;28;20239;-73
2022/07/08 06:48:40;;;;;;;11.18;10.18;;;;;;;36.96;26.98;92876.00;5003107;28;20230;-72
2022/07/08 06:51:06;;;;;;;9.15;8.55;;;;;;;33.50;31.47;92846.25;5000214;28;20230;-73
2022/07/08 06:54:34;;;;;;;11.18;10.00;;;;;;;33.07;33.41;92863.66;5002925;28;20188;-70
2022/07/08 06:56:17;;;;;;;10.98;9.98;;;;;;;28.48;42.07;92842.66;5002883;28;20224;-72
2022/07/08 06:58:42;;;;;;;9.85;9.13;;;;;;;27.30;44.82;92817.00;5001022;28;20191;-70
2022/07/08 07:01:09;;;;;;;10.98;9.45;;;;;;;26.64;47.67;92826.94;5000619;28;20235;-69
2022/07/08 07:03:34;;;;;;;11.50;10.60;;;;;;;24.98;51.62;92820.94;5002617;28;20213;-69
2022/07/08 07:06:00;;;;;;;10.57;9.65;;;;;;;25.04;51.85;92811.47;4998200;28;20235;-70
2022/07/08 07:08:25;;;;;;;11.85;10.80;;;;;;;24.32;53.62;92806.63;4991737;28;20350;-69
2022/07/08 07:10:50;;;;;;;10.60;9.80;;;;;;;24.52;52.35;92813.41;4970726;28;20232;-68
2022/07/08 07:13:16;;;;;;;10.07;9.48;;;;;;;24.61;53.55;92817.34;4970830;29;20191;-70
2022/07/08 07:15:42;;;;;;;11.77;10.85;;;;;;;24.38;53.16;92808.63;4970228;28;20401;-70
2022/07/08 07:18:08;;;;;;;14.65;13.20;;;;;;;24.18;53.47;92809.06;4969493;29;20191;-71
2022/07/08 07:20:34;;;;;;;10.10;9.40;;;;;;;23.50;55.35;92801.75;4970013;28;20187;-71
2022/07/08 07:22:59;;;;;;;9.18;8.57;;;;;;;23.97;54.12;92806.06;4969692;29;20231;-70
2022/07/08 07:25:25;;;;;;;11.40;10.48;;;;;;;23.51;55.94;92798.00;4970417;28;20187;-72
2022/07/08 07:27:50;;;;;;;12.35;11.35;;;;;;;24.07;54.41;92776.09;4970044;29;20203;-71
2022/07/08 07:30:15;;;;;;;10.38;9.57;;;;;;;24.65;52.27;92804.06;4970913;28;20227;-71
2022/07/08 07:32:41;;;;;;;10.50;9.73;;;;;;;24.30;51.89;92814.97;4969214;28;20235;-71
2022/07/08 07:35:07;;;;;;;10.48;9.77;;;;;;;24.27;53.63;92817.59;4970780;29;20253;-72
2022/07/08 07:37:37;;;;;;;9.48;8.77;;;;;;;24.00;49.81;92821.34;4969706;28;20235;-71
2022/07/08 07:40:04;;;;;;;10.10;9.50;;;;;;;23.57;52.18;92820.56;4970333;28;20215;-74
2022/07/08 07:42:29;;;;;;;10.13;8.63;;;;;;;23.98;51.41;92823.59;4969203;28;20282;-73
2022/07/08 07:44:55;;;;;;;8.45;7.88;;;;;;;24.02;48.83;92784.41;4970018;28;20203;-72
2022/07/08 07:47:20;;;;;;;8.70;8.10;;;;;;;24.18;50.92;92814.41;4966980;29;20250;-72
2022/07/08 07:49:45;;;;;;;11.20;10.30;;;;;;;23.85;51.15;92814.19;4970284;28;20222;-71
2022/07/08 07:52:11;;;;;;;10.45;9.60;;;;;;;24.06;53.87;92822.59;4969828;28;20321;-71
2022/07/08 07:54:36;;;;;;;12.57;11.50;;;;;;;24.03;54.76;92810.75;4970272;28;20794;-70
2022/07/08 07:57:02;;;;;;;10.80;10.07;;;;;;;24.43;52.21;92815.56;4969349;28;20236;-71
2022/07/08 07:59:27;;;;;;;10.68;9.63;;;;;;;24.36;50.50;92812.78;4970661;28;20199;-71
2022/07/08 08:01:53;;;;;;;8.93;8.23;;;;;;;24.23;48.08;92795.41;4968700;28;20307;-71
2022/07/08 08:04:18;;;;;;;9.68;9.07;;;;;;;24.39;47.73;92825.41;4969935;29;20204;-70
2022/07/08 08:06:44;;;;;;;10.30;9.48;;;;;;;24.22;50.21;92815.25;4969879;28;20232;-72
2022/07/08 08:09:09;;;;;;;9.30;8.60;;;;;;;23.77;49.87;92820.53;5000120;28;20234;-72
2022/07/08 08:11:34;;;;;;;9.30;8.60;;;;;;;24.13;51.29;92822.69;4999436;28;20223;-73
2022/07/08 08:14:00;;;;;;;10.07;9.38;;;;;;;24.46;49.17;92822.84;5002297;28;20175;-71
2022/07/08 08:16:25;;;;;;;9.60;8.90;;;;;;;23.94;50.82;92804.06;4998789;28;20257;-73
2022/07/08 08:18:50;;;;;;;9.50;8.90;;;;;;;23.83;50.93;92795.13;5001489;28;20194;-71
2022/07/08 08:21:16;;;;;;;9.77;9.18;;;;;;;24.37;50.05;92822.34;5004462;28;20219;-72
2022/07/08 08:23:41;;;;;;;9.73;9.13;;;;;;;24.63;48.34;92825.78;5002273;28;20212;-72
2022/07/08 08:26:07;;;;;;;9.52;8.93;;;;;;;24.77;48.31;92822.56;5001514;28;20235;-73
2022/07/08 08:28:32;;;;;;;8.63;8.18;;;;;;;24.90;48.00;92819.31;5000703;28;20221;-71
2022/07/08 08:30:57;;;;;;;9.35;8.75;;;;;;;24.98;48.39;92820.94;5002022;28;20242;-73
2022/07/08 08:33:23;;;;;;;8.85;8.35;;;;;;;24.69;48.38;92811.03;5000362;28;20228;-73
2022/07/08 08:35:48;;;;;;;9.70;9.00;;;;;;;24.55;48.77;92792.09;5002386;28;20229;-72
2022/07/08 08:38:14;;;;;;;9.48;8.77;;;;;;;24.99;48.68;92801.13;5003797;28;20229;-73
2022/07/08 08:40:41;;;;;;;9.98;8.98;;;;;;;24.96;47.51;92817.88;4999039;28;20201;-73
2022/07/08 08:43:06;;;;;;;10.05;9.32;;;;;;;25.10;48.92;92803.94;5000206;28;20219;-73
2022/07/08 08:45:33;;;;;;;9.80;9.10;;;;;;;24.38;48.63;92811.28;4999687;28;20199;-70
2022/07/08 08:48:00;;;;;;;10.23;9.45;;;;;;;23.80;52.92;92785.91;4998200;28;20199;-73
2022/07/08 08:53:15;;;;;;;8.85;8.23;;;;;;;24.91;50.10;92804.84;5002235;28;20205;-73
2022/07/08 08:55:40;;;;;;;11.43;10.43;;;;;;;24.86;50.23;92804.38;4998353;28;20178;-72
2022/07/08 08:58:06;;;;;;;10.77;9.90;;;;;;;24.85;51.01;92803.63;4998781;28;20266;-73
2022/07/08 09:00:34;;;;;;;10.52;9.82;;;;;;;24.40;53.21;92793.03;5001063;28;20187;-73
2022/07/08 09:03:00;;;;;;;9.95;8.30;;;;;;;24.83;48.75;92786.41;5004991;28;20191;-73
2022/07/08 09:05:27;;;;;;;9.98;9.30;;;;;;;24.63;50.24;92790.28;5005488;28;20193;-73
2022/07/08 09:07:54;;;;;;;9.05;8.43;;;;;;;24.77;48.99;92790.50;5001237;28;20247;-73
2022/07/08 09:10:20;;;;;;;10.00;9.30;;;;;;;24.76;51.41;92791.66;5005267;28;20198;-71
2022/07/08 09:13:12;;;;;;;9.50;8.80;;;;;;;25.35;48.92;92797.00;5004368;28;20235;-71
2022/07/08 09:15:45;;;;;;;9.57;8.90;;;;;;;25.47;47.48;92791.41;5006694;28;20205;-72
2022/07/08 09:18:13;;;;;;;9.57;9.00;;;;;;;25.15;48.12;92793.69;5007283;28;20210;-71
2022/07/08 09:20:42;;;;;;;9.70;9.00;;;;;;;24.45;49.91;92762.59;5004770;28;20198;-73
2022/07/08 09:23:30;;;;;;;8.93;8.43;;;;;;;24.01;51.67;92759.63;5004309;28;20266;-72
2022/07/08 09:26:01;;;;;;;9.13;8.60;;;;;;;24.43;50.74;92759.50;5008046;28;20270;-72
2022/07/08 09:28:33;;;;;;;10.50;9.80;;;;;;;24.47;52.88;92776.31;5005206;28;20238;-71
2022/07/08 09:31:04;;;;;;;10.02;9.32;;;;;;;24.81;50.41;92783.34;5001551;28;20294;-72
2022/07/08 09:33:29;;;;;;;8.45;8.05;;;;;;;24.90;49.63;92767.81;5003495;28;20199;-71
2022/07/08 09:35:56;;;;;;;9.10;8.60;;;;;;;25.33;43.91;92766.38;4982054;28;20242;-71
2022/07/08 09:38:23;;;;;;;8.05;7.57;;;;;;;24.97;44.95;92763.31;4973392;28;20219;-72
2022/07/08 09:40:58;;;;;;;8.63;8.13;;;;;;;25.25;43.65;92760.97;4985140;28;20239;-72
2022/07/08 09:43:25;;;;;;;8.75;8.23;;;;;;;25.13;43.07;92763.91;4985492;28;21015;-72
2022/07/08 09:45:51;;;;;;;8.98;8.18;;;;;;;25.27;43.51;92753.38;4983753;28;20244;-71
2022/07/08 09:48:17;;;;;;;8.77;8.07;;;;;;;25.47;44.74;92758.53;4984571;28;21294;-72
2022/07/08 09:50:48;;;;;;;8.45;7.95;;;;;;;25.70;45.42;92749.22;4982581;28;20247;-71
2022/07/08 09:53:16;;;;;;;8.68;8.20;;;;;;;25.44;45.49;92749.38;4983947;28;20258;-72
2022/07/08 09:55:48;;;;;;;8.68;8.23;;;;;;;26.04;44.11;92752.63;4985706;28;20184;-71
2022/07/08 09:58:15;;;;;;;8.07;7.57;;;;;;;25.85;41.66;92760.84;4982879;28;20202;-73
2022/07/08 10:00:42;;;;;;;8.30;7.80;;;;;;;25.67;43.22;92744.63;4985659;28;20260;-72
2022/07/08 10:03:07;;;;;;;8.80;8.30;;;;;;;25.21;44.48;92749.47;4984113;28;20219;-72
2022/07/08 10:05:33;;;;;;;8.82;8.32;;;;;;;25.30;45.11;92749.19;4984057;28;20188;-72
2022/07/08 10:07:59;;;;;;;8.85;8.25;;;;;;;25.06;46.36;92736.31;4982587;28;20239;-74
2022/07/08 10:10:25;;;;;;;9.43;8.82;;;;;;;25.02;44.48;92738.97;4984302;28;20188;-73
2022/07/08 10:12:57;;;;;;;8.70;8.07;;;;;;;25.13;45.40;92725.72;4979013;28;20223;-72
2022/07/08 10:15:24;;;;;;;8.05;7.55;;;;;;;25.61;45.07;92731.94;4995141;28;20212;-73
2022/07/08 10:17:50;;;;;;;8.68;8.15;;;;;;;25.78;42.10;92716.06;4980683;28;20196;-70
2022/07/08 10:20:18;;;;;;;8.50;7.85;;;;;;;25.38;44.66;92716.06;4985830;28;20207;-71
2022/07/08 10:22:48;;;;;;;8.23;7.72;;;;;;;25.94;44.72;92715.81;4984589;28;20235;-72
2022/07/08 10:25:15;;;;;;;8.60;7.80;;;;;;;25.71;42.64;92701.88;4983985;28;20180;-72
2022/07/08 10:27:40;;;;;;;8.73;8.15;;;;;;;25.52;43.82;92715.44;4982700;28;20231;-71
2022/07/08 10:30:17;;;;;;;8.73;8.13;;;;;;;25.50;41.75;92707.78;4983054;28;20230;-71
2022/07/08 10:32:47;;;;;;;8.93;8.23;;;;;;;25.72;43.65;92708.75;5000893;28;20233;-72
2022/07/08 10:35:19;;;;;;;7.72;7.13;;;;;;;25.42;41.89;92714.19;5001005;28;20207;-70
2022/07/08 10:37:50;;;;;;;8.45;7.95;;;;;;;25.26;43.13;92687.66;5002363;28;20253;-72
2022/07/08 10:40:41;;;;;;;7.63;7.25;;;;;;;25.49;44.32;92703.59;5001016;28;20223;-72
2022/07/08 10:43:19;;;;;;;8.70;8.13;;;;;;;25.55;45.48;92718.16;4992550;28;20212;-72
2022/07/08 10:46:10;;;;;;;8.95;8.38;;;;;;;25.47;46.11;92719.22;5001460;28;20253;-73
2022/07/08 10:48:45;;;;;;;9.32;8.73;;;;;;;26.02;44.93;92722.78;5004228;28;20214;-73
2022/07/08 10:51:19;;;;;;;8.50;8.00;;;;;;;26.39;40.87;92726.88;5001965;28;21026;-72
2022/07/08 10:53:58;;;;;;;9.07;8.35;;;;;;;26.88;40.97;92733.69;5003313;28;20214;-73
2022/07/08 10:56:47;;;;;;;8.68;8.18;;;;;;;26.34;41.05;92721.88;4998703;28;20258;-73
2022/07/08 10:59:18;;;;;;;7.30;6.90;;;;;;;26.74;42.15;92723.69;5001723;28;20192;-71
2022/07/08 11:01:53;;;;;;;8.48;7.97;;;;;;;27.07;39.03;92711.94;5000694;28;20223;-71
2022/07/08 11:04:31;;;;;;;8.95;8.18;;;;;;;27.48;40.09;92716.69;4983479;28;20203;-71
2022/07/08 11:07:32;;;;;;;9.05;8.40;;;;;;;27.42;40.67;92704.00;5001037;28;20218;-71
2022/07/08 11:10:08;;;;;;;9.75;8.98;;;;;;;27.92;38.53;92697.59;5002707;28;20223;-71
2022/07/08 11:12:44;;;;;;;8.48;7.88;;;;;;;27.89;38.96;92687.63;5002486;28;20795;-71
2022/07/08 11:15:12;;;;;;;8.65;8.15;;;;;;;27.46;39.14;92688.69;5001858;28;20191;-71
2022/07/08 11:17:39;;;;;;;9.35;8.65;;;;;;;27.46;39.63;92686.78;5001507;28;20232;-72
2022/07/08 11:20:18;;;;;;;9.55;8.63;;;;;;;27.43;39.79;92679.50;5002843;28;20730;-73
2022/07/08 11:22:45;;;;;;;8.13;7.63;;;;;;;26.95;38.99;92680.09;5003759;28;20254;-72
2022/07/08 11:25:13;;;;;;;8.65;8.15;;;;;;;26.35;41.77;92669.09;5001376;28;20183;-72
2022/07/08 11:27:39;;;;;;;8.82;8.32;;;;;;;26.53;41.14;92664.59;5001174;28;20251;-71
2022/07/08 11:30:07;;;;;;;9.38;8.88;;;;;;;26.69;40.80;92671.19;5000111;28;20200;-70
2022/07/08 11:32:33;;;;;;;8.27;7.72;;;;;;;26.43;40.64;92652.69;4999881;28;20243;-71